Time;durP1;ratioP1;P1;durP2;ratioP2;P2;SDS_P1;SDS_P2;PMS_P1;PMS_P2;Temp;Humidity;BMP_temperature;BMP_pressure;BME280_temperature;BME280_humidity;BME280_pressure;Samples;Min_cycle;Max_cycle;Signal;HPM_P1;HPM_P2
2023/01/29 00:00:11;;;;;;;5.15;3.25;;;;;;;;;;5046183;28;20472;-48
2023/01/29 00:02:37;;;;;;;7.57;4.47;;;;;;;;;;5045299;28;20396;-45
2023/01/29 00:05:04;;;;;;;8.20;4.40;;;;;;;;;;5060511;28;20028;-47
2023/01/29 00:07:31;;;;;;;7.93;4.85;;;;;;;;;;5065945;28;20033;-46
2023/01/29 00:09:57;;;;;;;9.15;4.97;;;;;;;;;;5047844;28;20033;-49
2023/01/29 00:12:23;;;;;;;9.10;4.85;;;;;;;;;;5044429;28;20025;-46
2023/01/29 00:14:49;;;;;;;8.02;4.43;;;;;;;;;;5045377;28;20060;-48
2023/01/29 00:17:15;;;;;;;10.02;5.28;;;;;;;;;;5045473;28;20094;-48
2023/01/29 00:19:41;;;;;;;11.27;5.45;;;;;;;;;;5045019;28;20037;-48
2023/01/29 00:22:07;;;;;;;12.85;6.00;;;;;;;;;;5046175;28;20567;-46
2023/01/29 00:24:33;;;;;;;12.80;5.75;;;;;;;;;;5045131;28;20067;-47
2023/01/29 00:26:59;;;;;;;12.40;5.93;;;;;;;;;;5045303;28;20539;-47
2023/01/29 00:29:25;;;;;;;18.38;8.02;;;;;;;;;;5045212;28;20036;-47
2023/01/29 00:31:51;;;;;;;16.45;7.88;;;;;;;;;;5045463;28;20413;-48
2023/01/29 00:34:17;;;;;;;20.42;8.95;;;;;;;;;;5045134;28;20259;-47
2023/01/29 00:36:44;;;;;;;21.73;9.65;;;;;;;;;;5043486;28;20025;-45
2023/01/29 00:39:11;;;;;;;19.20;8.77;;;;;;;;;;5045300;28;20021;-46
2023/01/29 00:47:29;;;;;;;15.98;7.43;;;;;;;;;;5045336;28;20434;-46
2023/01/29 00:49:54;;;;;;;18.52;8.40;;;;;;;;;;5043425;28;20029;-49
2023/01/29 00:52:23;;;;;;;17.98;7.90;;;;;;;;;;5045796;28;20551;-46
2023/01/29 00:54:49;;;;;;;15.52;7.63;;;;;;;;;;5045683;28;20033;-49
2023/01/29 00:57:15;;;;;;;18.98;8.32;;;;;;;;;;5045908;28;20196;-48
2023/01/29 00:59:41;;;;;;;17.42;7.38;;;;;;;;;;5045392;28;20898;-47
2023/01/29 01:04:52;;;;;;;16.60;7.13;;;;;;;;;;5041441;28;20052;-49
2023/01/29 06:12:41;;;;;;;7.43;4.60;;;;;;;;;;5049206;28;20122;-48
2023/01/29 06:15:07;;;;;;;7.05;4.90;;;;;;;;;;5050509;28;20183;-47
2023/01/29 06:17:33;;;;;;;6.57;4.38;;;;;;;;;;5050605;28;20037;-48
2023/01/29 06:19:59;;;;;;;5.22;3.50;;;;;;;;;;5050651;28;20431;-46
2023/01/29 06:22:26;;;;;;;7.68;4.38;;;;;;;;;;5049360;28;20025;-46
2023/01/29 06:24:53;;;;;;;5.00;3.40;;;;;;;;;;5050525;28;20029;-47
2023/01/29 06:27:19;;;;;;;6.70;4.18;;;;;;;;;;5050329;28;20033;-46
2023/01/29 06:29:45;;;;;;;5.50;3.92;;;;;;;;;;5050445;28;20056;-49
2023/01/29 06:32:12;;;;;;;6.20;3.72;;;;;;;;;;5050356;28;20381;-46
2023/01/29 06:34:38;;;;;;;5.78;3.85;;;;;;;;;;5050740;28;20036;-46
2023/01/29 06:37:04;;;;;;;6.35;4.03;;;;;;;;;;5050099;28;20040;-48
2023/01/29 06:39:30;;;;;;;7.07;4.13;;;;;;;;;;5050639;28;20477;-45
2023/01/29 06:41:56;;;;;;;5.75;3.83;;;;;;;;;;5050208;28;20029;-46
2023/01/29 06:44:21;;;;;;;6.03;3.80;;;;;;;;;;5049934;28;20079;-46
2023/01/29 06:46:47;;;;;;;5.88;3.95;;;;;;;;;;5046555;28;20036;-48
2023/01/29 06:49:13;;;;;;;6.60;4.20;;;;;;;;;;5046323;28;20484;-45
2023/01/29 06:51:39;;;;;;;5.45;3.60;;;;;;;;;;5053472;28;20104;-46
2023/01/29 06:54:07;;;;;;;5.13;3.72;;;;;;;;;;5053243;28;20035;-46
2023/01/29 06:56:33;;;;;;;5.93;3.70;;;;;;;;;;5049914;28;20024;-45
2023/01/29 06:58:59;;;;;;;6.05;3.78;;;;;;;;;;5050805;28;20043;-47
2023/01/29 07:01:25;;;;;;;7.38;4.13;;;;;;;;;;5050525;28;20033;-45
2023/01/29 07:03:51;;;;;;;6.30;4.20;;;;;;;;;;5050223;28;20116;-46
2023/01/29 07:06:18;;;;;;;6.03;3.75;;;;;;;;;;5049894;28;20032;-46
2023/01/29 07:08:45;;;;;;;7.20;4.75;;;;;;;;;;5050994;28;20021;-47
2023/01/29 07:11:11;;;;;;;5.47;3.90;;;;;;;;;;5051226;28;20488;-45
2023/01/29 07:13:37;;;;;;;6.70;4.60;;;;;;;;;;5051259;28;20384;-45
2023/01/29 07:16:05;;;;;;;6.50;4.38;;;;;;;;;;5050059;28;20054;-46
2023/01/29 07:18:31;;;;;;;6.43;4.18;;;;;;;;;;5051138;28;20128;-46
2023/01/29 07:21:00;;;;;;;6.78;4.20;;;;;;;;;;5051219;28;20129;-45
2023/01/29 07:23:26;;;;;;;6.32;4.00;;;;;;;;;;5051511;28;20028;-46
2023/01/29 07:25:52;;;;;;;7.32;4.15;;;;;;;;;;5051059;28;20043;-47
2023/01/29 07:28:20;;;;;;;5.70;3.60;;;;;;;;;;5051045;28;20052;-48
2023/01/29 07:30:46;;;;;;;6.00;4.15;;;;;;;;;;5051297;28;20057;-46
2023/01/29 07:33:12;;;;;;;5.57;3.70;;;;;;;;;;5051041;28;20028;-46
2023/01/29 07:35:39;;;;;;;6.32;4.22;;;;;;;;;;5050997;28;20396;-46
2023/01/29 07:38:06;;;;;;;6.03;3.88;;;;;;;;;;5050591;28;20029;-49
2023/01/29 07:40:32;;;;;;;6.25;3.85;;;;;;;;;;5050622;28;20108;-48
2023/01/29 07:43:02;;;;;;;6.35;4.15;;;;;;;;;;5051207;28;20048;-47
2023/01/29 07:45:28;;;;;;;12.82;6.50;;;;;;;;;;5051086;28;20468;-46
2023/01/29 07:47:55;;;;;;;19.00;7.82;;;;;;;;;;5050853;28;20107;-47
2023/01/29 07:50:21;;;;;;;14.90;7.30;;;;;;;;;;5050560;28;20121;-47
2023/01/29 07:52:47;;;;;;;14.82;7.15;;;;;;;;;;5050781;28;20438;-46
2023/01/29 07:55:13;;;;;;;11.50;6.45;;;;;;;;;;5050403;28;20070;-46
2023/01/29 07:57:39;;;;;;;12.05;6.20;;;;;;;;;;5050591;28;20055;-49
2023/01/29 08:00:06;;;;;;;9.95;5.70;;;;;;;;;;5050543;28;20106;-48
2023/01/29 08:02:33;;;;;;;10.27;5.97;;;;;;;;;;5050395;28;20013;-46
2023/01/29 08:04:59;;;;;;;9.35;5.55;;;;;;;;;;5050917;28;20656;-46
2023/01/29 08:07:25;;;;;;;7.78;4.88;;;;;;;;;;5050586;28;20058;-46
2023/01/29 08:09:51;;;;;;;8.18;4.95;;;;;;;;;;5049969;28;20419;-46
2023/01/29 08:12:17;;;;;;;9.82;5.95;;;;;;;;;;5050397;28;20040;-46
2023/01/29 08:14:44;;;;;;;9.25;5.30;;;;;;;;;;5049396;28;20127;-47
2023/01/29 08:17:10;;;;;;;8.63;4.85;;;;;;;;;;5048622;28;20113;-46
2023/01/29 08:19:36;;;;;;;8.50;4.82;;;;;;;;;;5048331;28;20037;-46
2023/01/29 08:22:03;;;;;;;7.70;4.80;;;;;;;;;;5051468;28;20067;-45
2023/01/29 08:24:29;;;;;;;8.27;5.57;;;;;;;;;;5049751;28;20033;-46
2023/01/29 08:26:57;;;;;;;8.65;5.10;;;;;;;;;;5050182;28;20100;-46
2023/01/29 08:29:23;;;;;;;7.45;4.63;;;;;;;;;;5048339;28;20104;-45
2023/01/29 08:31:49;;;;;;;7.97;4.65;;;;;;;;;;5047853;28;20037;-45
2023/01/29 08:34:15;;;;;;;8.30;4.70;;;;;;;;;;5044838;28;20418;-47
2023/01/29 08:36:41;;;;;;;7.10;4.57;;;;;;;;;;5049852;28;20021;-46
2023/01/29 08:39:08;;;;;;;6.53;4.20;;;;;;;;;;5049501;28;20025;-47
2023/01/29 08:41:34;;;;;;;6.22;3.90;;;;;;;;;;5049581;28;20029;-45
2023/01/29 08:44:03;;;;;;;6.25;3.80;;;;;;;;;;5050025;28;20458;-45
2023/01/29 08:46:29;;;;;;;6.88;4.53;;;;;;;;;;5049499;28;20032;-46
2023/01/29 08:48:56;;;;;;;6.30;4.30;;;;;;;;;;5049862;28;20033;-46
2023/01/29 08:51:22;;;;;;;6.50;4.47;;;;;;;;;;5048097;28;20043;-47
2023/01/29 08:53:48;;;;;;;6.45;4.10;;;;;;;;;;5049490;28;20044;-49
2023/01/29 08:56:15;;;;;;;7.20;4.28;;;;;;;;;;5048827;28;20036;-49
2023/01/29 08:58:41;;;;;;;6.40;4.30;;;;;;;;;;5048768;28;20021;-46
2023/01/29 09:01:09;;;;;;;6.32;3.97;;;;;;;;;;5048109;28;20020;-46
2023/01/29 09:03:35;;;;;;;6.00;4.03;;;;;;;;;;5049043;28;20514;-46
2023/01/29 09:06:01;;;;;;;5.63;3.78;;;;;;;;;;5049047;28;20045;-47
2023/01/29 09:08:27;;;;;;;6.22;4.22;;;;;;;;;;5048829;28;20037;-46
2023/01/29 09:10:53;;;;;;;5.45;3.85;;;;;;;;;;5047989;28;20051;-47
2023/01/29 09:13:19;;;;;;;6.80;4.15;;;;;;;;;;5048754;28;20032;-49
2023/01/29 09:15:45;;;;;;;6.90;4.40;;;;;;;;;;5049069;28;20577;-46
2023/01/29 09:18:12;;;;;;;6.63;4.40;;;;;;;;;;5048926;28;20032;-45
2023/01/29 09:20:38;;;;;;;7.03;4.30;;;;;;;;;;5048628;28;20060;-45
2023/01/29 09:23:05;;;;;;;7.35;4.22;;;;;;;;;;5049080;28;20443;-46
2023/01/29 09:25:32;;;;;;;5.22;3.78;;;;;;;;;;5048836;28;20074;-48
2023/01/29 09:27:59;;;;;;;8.82;5.10;;;;;;;;;;5048610;28;20045;-45
2023/01/29 09:30:25;;;;;;;7.68;5.00;;;;;;;;;;5048798;28;20256;-46
2023/01/29 09:32:52;;;;;;;8.40;5.05;;;;;;;;;;5047208;28;20511;-47
2023/01/29 09:35:19;;;;;;;7.97;4.88;;;;;;;;;;5048505;28;20025;-46
2023/01/29 09:37:49;;;;;;;8.13;5.30;;;;;;;;;;5048578;28;20033;-46
2023/01/29 09:40:33;;;;;;;6.80;4.55;;;;;;;;;;5048588;28;20033;-46
2023/01/29 09:42:59;;;;;;;;;;;;;;;;;;5049208;28;20033;-47
2023/01/29 09:45:27;;;;;;;6.72;4.82;;;;;;;;;;5048747;28;20354;-45
2023/01/29 09:47:55;;;;;;;8.25;5.32;;;;;;;;;;5048407;28;20027;-47
2023/01/29 09:50:27;;;;;;;8.07;4.85;;;;;;;;;;5048279;28;20510;-45
2023/01/29 09:53:12;;;;;;;9.57;5.50;;;;;;;;;;5048460;28;20492;-45
2023/01/29 09:55:45;;;;;;;7.13;4.60;;;;;;;;;;5048341;28;20485;-46
2023/01/29 09:58:11;;;;;;;8.02;4.50;;;;;;;;;;5048114;28;20146;-45
2023/01/29 10:00:39;;;;;;;6.53;4.40;;;;;;;;;;5048442;28;20087;-47
2023/01/29 10:03:24;;;;;;;6.20;4.07;;;;;;;;;;5048259;28;20035;-45
2023/01/29 10:06:08;;;;;;;5.75;4.10;;;;;;;;;;5048132;28;20090;-47
2023/01/29 10:09:00;;;;;;;7.20;4.70;;;;;;;;;;5048093;28;20095;-45
2023/01/29 10:11:45;;;;;;;7.38;4.43;;;;;;;;;;5048525;28;20040;-45
2023/01/29 10:14:16;;;;;;;6.82;4.45;;;;;;;;;;5047825;28;20025;-45
2023/01/29 10:16:54;;;;;;;8.70;5.03;;;;;;;;;;5048117;28;20037;-45
2023/01/29 10:19:30;;;;;;;8.63;5.07;;;;;;;;;;5047870;28;20028;-46
2023/01/29 10:22:05;;;;;;;8.40;4.88;;;;;;;;;;5048406;28;20037;-45
2023/01/29 10:24:57;;;;;;;7.50;5.15;;;;;;;;;;5048019;28;20025;-46
2023/01/29 10:27:27;;;;;;;9.55;5.65;;;;;;;;;;5043855;28;20041;-47
2023/01/29 10:29:53;;;;;;;10.60;6.18;;;;;;;;;;5047773;28;20021;-46
2023/01/29 10:32:22;;;;;;;10.10;6.60;;;;;;;;;;5047184;28;20065;-46
2023/01/29 10:34:51;;;;;;;10.02;7.00;;;;;;;;;;5045078;28;20036;-46
2023/01/29 10:37:22;;;;;;;8.45;5.95;;;;;;;;;;5047813;28;20033;-45
2023/01/29 10:39:49;;;;;;;10.20;6.05;;;;;;;;;;5047790;28;20106;-47
2023/01/29 10:42:24;;;;;;;8.45;5.97;;;;;;;;;;5047748;28;20447;-48
2023/01/29 10:45:02;;;;;;;10.32;6.70;;;;;;;;;;5047925;28;20261;-45
2023/01/29 10:48:05;;;;;;;10.02;7.00;;;;;;;;;;5048004;28;20515;-46
2023/01/29 10:50:49;;;;;;;9.57;6.35;;;;;;;;;;4986078;28;20394;-45
2023/01/29 10:53:21;;;;;;;8.05;5.43;;;;;;;;;;5043221;28;20037;-48
2023/01/29 10:55:58;;;;;;;7.57;5.22;;;;;;;;;;5048770;28;20048;-48
2023/01/29 10:58:27;;;;;;;10.40;5.95;;;;;;;;;;5051097;28;20055;-46
2023/01/29 11:00:53;;;;;;;8.98;5.10;;;;;;;;;;5049268;28;20444;-47
2023/01/29 11:03:25;;;;;;;6.70;4.82;;;;;;;;;;5051239;28;20064;-47
2023/01/29 11:05:56;;;;;;;5.95;4.47;;;;;;;;;;5051374;28;20032;-46
2023/01/29 11:08:26;;;;;;;6.28;4.35;;;;;;;;;;5051561;28;20419;-46
2023/01/29 11:10:58;;;;;;;6.65;4.45;;;;;;;;;;5051031;28;20031;-46
2023/01/29 11:13:27;;;;;;;7.45;4.80;;;;;;;;;;5050851;28;20061;-46
2023/01/29 11:15:53;;;;;;;6.60;4.70;;;;;;;;;;5051122;28;20033;-45
2023/01/29 11:18:20;;;;;;;8.13;5.18;;;;;;;;;;5050808;28;20029;-46
2023/01/29 11:20:46;;;;;;;6.93;4.50;;;;;;;;;;5051091;28;20079;-46
2023/01/29 11:23:26;;;;;;;5.43;3.97;;;;;;;;;;5050528;28;20043;-47
2023/01/29 11:25:52;;;;;;;5.35;3.80;;;;;;;;;;5050281;28;20028;-45
2023/01/29 11:28:34;;;;;;;6.90;4.93;;;;;;;;;;5048526;28;20056;-46
2023/01/29 11:31:01;;;;;;;6.70;4.43;;;;;;;;;;5050647;28;20414;-46
2023/01/29 11:33:28;;;;;;;6.80;4.60;;;;;;;;;;5048872;28;20492;-46
2023/01/29 11:35:56;;;;;;;11.77;6.93;;;;;;;;;;5049369;28;20036;-46
2023/01/29 11:38:23;;;;;;;12.13;8.07;;;;;;;;;;5050396;28;20051;-46
2023/01/29 11:40:49;;;;;;;12.40;8.02;;;;;;;;;;5050836;28;20021;-47
2023/01/29 11:43:28;;;;;;;11.90;7.55;;;;;;;;;;5050121;28;20029;-48
2023/01/29 11:45:56;;;;;;;9.75;6.65;;;;;;;;;;5030612;28;20408;-45
2023/01/29 11:48:31;;;;;;;8.80;5.88;;;;;;;;;;5037814;28;20017;-46
2023/01/29 11:51:01;;;;;;;8.98;6.22;;;;;;;;;;5050813;28;20424;-47
2023/01/29 11:53:53;;;;;;;7.57;5.30;;;;;;;;;;5050620;28;20053;-47
2023/01/29 11:56:21;;;;;;;7.80;5.53;;;;;;;;;;5046358;28;20052;-45
2023/01/29 11:58:48;;;;;;;8.98;5.35;;;;;;;;;;5049216;28;20021;-46
2023/01/29 12:01:16;;;;;;;8.35;5.45;;;;;;;;;;5049061;28;20040;-45
2023/01/29 12:03:44;;;;;;;7.85;5.53;;;;;;;;;;5049075;28;20500;-47
2023/01/29 12:06:13;;;;;;;10.00;6.10;;;;;;;;;;5050390;28;20025;-46
2023/01/29 12:08:39;;;;;;;7.40;5.30;;;;;;;;;;5047438;28;20035;-48
2023/01/29 12:11:09;;;;;;;8.90;6.05;;;;;;;;;;5052517;28;20039;-47
2023/01/29 12:13:35;;;;;;;9.90;6.45;;;;;;;;;;5045536;28;20025;-45
2023/01/29 12:16:10;;;;;;;9.73;5.78;;;;;;;;;;5044053;28;20420;-43
2023/01/29 12:18:37;;;;;;;9.40;5.63;;;;;;;;;;5046187;28;20096;-44
2023/01/29 12:21:04;;;;;;;7.70;5.00;;;;;;;;;;5044938;28;20033;-44
2023/01/29 12:23:35;;;;;;;7.30;4.57;;;;;;;;;;5045453;28;20036;-43
2023/01/29 12:26:07;;;;;;;7.82;5.13;;;;;;;;;;5044812;28;20059;-44
2023/01/29 12:28:51;;;;;;;7.28;4.93;;;;;;;;;;5045256;28;20431;-45
2023/01/29 12:31:17;;;;;;;6.38;4.22;;;;;;;;;;5045341;28;20028;-44
2023/01/29 12:34:02;;;;;;;8.07;5.30;;;;;;;;;;5044375;28;20520;-45
2023/01/29 12:36:32;;;;;;;6.80;4.38;;;;;;;;;;5045077;28;20464;-43
2023/01/29 12:38:59;;;;;;;7.38;5.05;;;;;;;;;;5043918;28;20029;-43
2023/01/29 12:41:46;;;;;;;7.78;4.72;;;;;;;;;;5043394;28;20032;-43
2023/01/29 12:44:15;;;;;;;7.20;4.57;;;;;;;;;;5044672;28;20482;-45
2023/01/29 12:46:43;;;;;;;6.88;4.15;;;;;;;;;;5045080;28;20068;-46
2023/01/29 12:49:13;;;;;;;9.30;5.72;;;;;;;;;;5044887;28;20341;-46
2023/01/29 12:51:42;;;;;;;6.95;4.57;;;;;;;;;;5043570;28;20036;-48
2023/01/29 12:54:17;;;;;;;6.45;4.20;;;;;;;;;;5045085;28;20025;-47
2023/01/29 12:56:48;;;;;;;5.65;3.75;;;;;;;;;;5044357;28;20095;-46
2023/01/29 12:59:18;;;;;;;6.57;4.40;;;;;;;;;;5044409;28;20104;-45
2023/01/29 13:01:59;;;;;;;6.43;4.18;;;;;;;;;;5040529;28;20124;-46
2023/01/29 13:04:44;;;;;;;7.15;4.82;;;;;;;;;;5044546;28;20086;-45
2023/01/29 13:07:22;;;;;;;7.45;4.85;;;;;;;;;;5044812;28;20574;-46
2023/01/29 13:09:50;;;;;;;6.15;4.43;;;;;;;;;;5042880;28;20032;-46
2023/01/29 13:12:18;;;;;;;6.55;4.40;;;;;;;;;;5043558;28;20025;-48
2023/01/29 13:15:02;;;;;;;8.15;5.10;;;;;;;;;;5043784;28;20588;-46
2023/01/29 13:17:29;;;;;;;;;;;;;;;;;;5044544;28;20543;-45
2023/01/29 13:19:58;;;;;;;22.00;8.35;;;;;;;;;;5044200;28;19913;-45
2023/01/29 13:22:25;;;;;;;18.60;7.65;;;;;;;;;;5041758;28;20497;-45
2023/01/29 13:24:52;;;;;;;20.55;7.97;;;;;;;;;;5045317;28;20037;-45
2023/01/29 13:27:28;;;;;;;21.80;8.43;;;;;;;;;;5034437;28;20110;-45
2023/01/29 13:29:56;;;;;;;19.58;8.85;;;;;;;;;;5044504;28;20033;-45
2023/01/29 13:32:27;;;;;;;39.13;14.60;;;;;;;;;;5042744;28;20024;-45
2023/01/29 13:34:55;;;;;;;32.10;13.15;;;;;;;;;;5038944;28;20080;-47
2023/01/29 13:37:21;;;;;;;33.50;13.32;;;;;;;;;;5043628;28;20036;-46
2023/01/29 13:39:49;;;;;;;29.40;12.10;;;;;;;;;;5043563;28;20472;-46
2023/01/29 13:42:19;;;;;;;26.60;11.73;;;;;;;;;;5040809;28;20399;-46
2023/01/29 13:44:49;;;;;;;20.33;9.30;;;;;;;;;;5043359;28;20035;-46
2023/01/29 13:47:21;;;;;;;17.67;8.23;;;;;;;;;;5043238;28;20400;-45
2023/01/29 13:49:59;;;;;;;15.38;7.82;;;;;;;;;;5043398;28;20065;-46
2023/01/29 13:52:45;;;;;;;15.20;7.30;;;;;;;;;;5042432;28;20037;-45
2023/01/29 13:55:14;;;;;;;13.23;7.03;;;;;;;;;;5042869;28;20108;-45
2023/01/29 13:57:43;;;;;;;11.20;6.43;;;;;;;;;;5044128;28;20025;-46
2023/01/29 14:00:23;;;;;;;10.32;6.10;;;;;;;;;;5043410;28;20048;-46
2023/01/29 14:02:55;;;;;;;11.18;6.13;;;;;;;;;;5044103;28;20051;-46
2023/01/29 14:05:30;;;;;;;12.05;6.68;;;;;;;;;;5042295;28;20029;-46
2023/01/29 14:07:59;;;;;;;10.57;6.13;;;;;;;;;;5049243;28;20044;-46
2023/01/29 14:10:26;;;;;;;10.43;6.22;;;;;;;;;;5056967;28;20640;-46
2023/01/29 14:12:54;;;;;;;9.55;5.72;;;;;;;;;;5043664;28;20025;-46
2023/01/29 14:15:20;;;;;;;8.15;5.00;;;;;;;;;;5044180;28;20036;-46
2023/01/29 14:18:12;;;;;;;10.68;5.75;;;;;;;;;;5042786;28;20415;-46
2023/01/29 14:20:40;;;;;;;9.23;5.47;;;;;;;;;;5017599;28;20102;-46
2023/01/29 14:23:07;;;;;;;7.90;5.00;;;;;;;;;;5042971;28;20103;-48
2023/01/29 14:25:35;;;;;;;8.63;4.95;;;;;;;;;;5042899;28;20032;-47
2023/01/29 14:28:02;;;;;;;10.20;5.93;;;;;;;;;;5042727;28;20668;-46
2023/01/29 14:30:32;;;;;;;8.50;5.40;;;;;;;;;;5045146;28;20064;-47
2023/01/29 14:33:00;;;;;;;7.82;5.07;;;;;;;;;;5046422;28;20025;-46
2023/01/29 14:35:29;;;;;;;7.85;4.45;;;;;;;;;;5036839;28;20029;-45
2023/01/29 14:38:01;;;;;;;6.38;4.55;;;;;;;;;;5047367;28;20033;-46
2023/01/29 14:40:28;;;;;;;8.77;5.47;;;;;;;;;;5044667;28;20057;-46
2023/01/29 14:43:01;;;;;;;6.32;4.47;;;;;;;;;;5045354;28;20025;-47
2023/01/29 14:45:29;;;;;;;6.50;4.53;;;;;;;;;;5047710;28;20029;-46
2023/01/29 14:47:57;;;;;;;6.70;4.80;;;;;;;;;;5046605;28;20155;-46
2023/01/29 14:50:32;;;;;;;6.65;4.10;;;;;;;;;;5047077;28;20033;-45
2023/01/29 14:53:18;;;;;;;7.78;4.70;;;;;;;;;;5046793;28;20048;-47
2023/01/29 14:56:04;;;;;;;6.97;4.70;;;;;;;;;;4997903;28;20045;-45
2023/01/29 14:58:45;;;;;;;8.13;5.35;;;;;;;;;;5045034;28;20039;-45
2023/01/29 15:01:16;;;;;;;7.10;4.78;;;;;;;;;;5044720;28;20033;-48
2023/01/29 15:03:50;;;;;;;8.68;5.05;;;;;;;;;;5046307;28;20025;-46
2023/01/29 15:06:22;;;;;;;8.60;5.32;;;;;;;;;;5041433;28;20031;-46
2023/01/29 15:09:09;;;;;;;7.82;5.30;;;;;;;;;;5045315;28;20029;-47
2023/01/29 15:12:04;;;;;;;6.57;4.72;;;;;;;;;;5040815;28;20049;-44
2023/01/29 15:14:35;;;;;;;6.90;4.57;;;;;;;;;;5015469;28;20126;-48
2023/01/29 15:17:01;;;;;;;6.82;4.75;;;;;;;;;;5045750;28;20037;-47
2023/01/29 15:19:44;;;;;;;6.68;5.25;;;;;;;;;;5046339;28;20024;-46
2023/01/29 15:22:12;;;;;;;7.60;5.00;;;;;;;;;;5045008;28;20086;-46
2023/01/29 15:24:39;;;;;;;6.40;4.72;;;;;;;;;;5045271;28;20547;-45
2023/01/29 15:27:18;;;;;;;8.15;5.20;;;;;;;;;;5046081;28;20624;-45
2023/01/29 15:30:04;;;;;;;8.98;6.05;;;;;;;;;;5045816;28;20557;-45
2023/01/29 15:32:35;;;;;;;8.27;5.38;;;;;;;;;;5045371;28;20064;-46
2023/01/29 15:35:05;;;;;;;8.80;5.72;;;;;;;;;;5045791;28;20021;-45
2023/01/29 15:37:32;;;;;;;8.13;5.95;;;;;;;;;;5045312;28;20411;-46
2023/01/29 15:39:59;;;;;;;8.70;5.47;;;;;;;;;;5050063;28;20511;-46
2023/01/29 15:42:26;;;;;;;7.18;4.95;;;;;;;;;;5045863;28;20052;-46
2023/01/29 15:44:56;;;;;;;9.57;6.28;;;;;;;;;;5047583;28;20018;-45
2023/01/29 15:47:23;;;;;;;8.68;5.85;;;;;;;;;;5047715;28;20767;-47
2023/01/29 15:49:49;;;;;;;9.10;6.28;;;;;;;;;;5047215;28;20087;-45
2023/01/29 15:52:20;;;;;;;10.20;6.43;;;;;;;;;;5046598;28;20037;-46
2023/01/29 15:54:47;;;;;;;8.73;6.18;;;;;;;;;;5047148;28;20025;-46
2023/01/29 15:57:22;;;;;;;10.88;6.60;;;;;;;;;;5047026;28;20036;-46
2023/01/29 15:59:50;;;;;;;10.25;6.40;;;;;;;;;;5047397;28;20762;-46
2023/01/29 16:02:25;;;;;;;9.75;6.60;;;;;;;;;;5047374;28;20032;-47
2023/01/29 16:04:52;;;;;;;9.20;5.75;;;;;;;;;;5047932;28;20033;-45
2023/01/29 16:07:19;;;;;;;8.38;5.88;;;;;;;;;;5048436;28;20035;-47
2023/01/29 16:09:46;;;;;;;10.27;6.45;;;;;;;;;;5046832;28;20036;-46
2023/01/29 16:12:12;;;;;;;9.50;6.38;;;;;;;;;;5047352;28;20033;-46
2023/01/29 16:14:38;;;;;;;9.30;5.85;;;;;;;;;;5047153;28;20155;-45
2023/01/29 16:17:36;;;;;;;10.85;6.43;;;;;;;;;;5047822;28;20408;-45
2023/01/29 16:20:07;;;;;;;9.43;6.22;;;;;;;;;;5046727;28;20044;-46
2023/01/29 16:22:35;;;;;;;10.65;7.20;;;;;;;;;;5046211;28;20032;-45
2023/01/29 16:25:05;;;;;;;10.73;6.80;;;;;;;;;;5043613;28;20136;-46
2023/01/29 16:27:32;;;;;;;9.57;6.22;;;;;;;;;;5044002;28;20033;-45
2023/01/29 16:30:01;;;;;;;9.50;6.22;;;;;;;;;;5043476;28;20467;-47
2023/01/29 16:32:27;;;;;;;10.18;6.43;;;;;;;;;;5044627;28;20033;-46
2023/01/29 16:34:56;;;;;;;8.95;6.15;;;;;;;;;;5045472;28;20040;-45
2023/01/29 16:37:24;;;;;;;10.57;6.65;;;;;;;;;;5043733;28;20072;-45
2023/01/29 16:39:54;;;;;;;9.98;6.60;;;;;;;;;;5044265;28;20455;-46
2023/01/29 16:42:20;;;;;;;9.68;6.30;;;;;;;;;;5044919;28;20036;-45
2023/01/29 16:44:55;;;;;;;9.48;5.90;;;;;;;;;;5044299;28;20059;-45
2023/01/29 16:47:30;;;;;;;11.05;6.82;;;;;;;;;;5044576;28;20028;-45
2023/01/29 16:49:57;;;;;;;9.80;6.22;;;;;;;;;;5044374;28;20583;-47
2023/01/29 16:52:31;;;;;;;10.27;6.15;;;;;;;;;;5044346;28;20115;-46
2023/01/29 16:55:12;;;;;;;12.55;7.15;;;;;;;;;;5042940;28;20043;-46
2023/01/29 16:57:38;;;;;;;11.95;7.18;;;;;;;;;;5044791;28;20033;-45
2023/01/29 17:00:07;;;;;;;13.95;8.10;;;;;;;;;;5044571;28;20393;-45
2023/01/29 17:02:36;;;;;;;11.82;7.40;;;;;;;;;;5030572;28;20064;-45
2023/01/29 17:05:14;;;;;;;15.55;7.68;;;;;;;;;;5044856;28;20029;-46
2023/01/29 17:07:44;;;;;;;14.73;8.05;;;;;;;;;;5043431;28;20188;-47
2023/01/29 17:10:16;;;;;;;13.77;7.60;;;;;;;;;;5038087;28;20036;-46
2023/01/29 17:12:42;;;;;;;14.02;7.63;;;;;;;;;;5042911;28;20539;-46
2023/01/29 17:15:26;;;;;;;12.35;7.47;;;;;;;;;;5043494;28;20203;-46
2023/01/29 17:17:52;;;;;;;12.07;7.20;;;;;;;;;;5043734;28;20591;-49
2023/01/29 17:20:18;;;;;;;11.32;7.25;;;;;;;;;;5042832;28;20537;-47
2023/01/29 17:22:45;;;;;;;11.13;7.32;;;;;;;;;;5044088;28;20039;-46
2023/01/29 17:25:15;;;;;;;12.55;7.03;;;;;;;;;;5043360;28;20029;-46
2023/01/29 17:27:43;;;;;;;10.02;6.70;;;;;;;;;;5043939;28;20242;-47
2023/01/29 17:30:15;;;;;;;10.32;6.20;;;;;;;;;;5055093;28;20469;-46
2023/01/29 17:32:41;;;;;;;10.88;6.28;;;;;;;;;;5030338;28;20527;-45
2023/01/29 17:35:08;;;;;;;8.35;5.57;;;;;;;;;;5040613;28;20028;-44
2023/01/29 17:37:34;;;;;;;10.82;6.50;;;;;;;;;;5042580;28;20064;-45
2023/01/29 17:40:00;;;;;;;9.55;6.00;;;;;;;;;;5044029;28;20055;-45
2023/01/29 17:42:27;;;;;;;12.55;7.25;;;;;;;;;;5043670;28;20025;-45
2023/01/29 17:44:53;;;;;;;11.70;7.43;;;;;;;;;;5043511;28;20045;-46
2023/01/29 17:47:19;;;;;;;12.20;7.50;;;;;;;;;;5052850;28;20080;-46
2023/01/29 17:49:46;;;;;;;11.60;7.70;;;;;;;;;;5042911;28;20067;-46
2023/01/29 17:52:12;;;;;;;14.00;7.97;;;;;;;;;;5043721;28;20391;-45
2023/01/29 17:54:38;;;;;;;11.85;7.70;;;;;;;;;;5042740;28;20029;-48
2023/01/29 17:57:04;;;;;;;13.93;8.18;;;;;;;;;;5026775;28;20036;-46
2023/01/29 17:59:32;;;;;;;13.32;8.35;;;;;;;;;;5043727;28;20025;-45
2023/01/29 18:01:58;;;;;;;12.63;8.23;;;;;;;;;;5043686;28;20037;-46
2023/01/29 18:04:25;;;;;;;12.45;7.43;;;;;;;;;;5047398;28;20607;-45
2023/01/29 18:06:51;;;;;;;11.32;7.38;;;;;;;;;;5043535;28;20063;-46
2023/01/29 18:09:21;;;;;;;14.35;8.95;;;;;;;;;;5042690;28;20036;-45
2023/01/29 18:11:48;;;;;;;12.88;8.40;;;;;;;;;;5045170;28;20029;-46
2023/01/29 18:14:14;;;;;;;13.48;8.30;;;;;;;;;;5045809;28;20109;-45
2023/01/29 18:16:40;;;;;;;13.20;8.00;;;;;;;;;;5044901;28;20029;-45
2023/01/29 18:19:32;;;;;;;14.73;8.57;;;;;;;;;;5045332;28;20029;-45
2023/01/29 18:21:58;;;;;;;15.52;8.63;;;;;;;;;;5035663;28;20041;-46
2023/01/29 18:24:25;;;;;;;11.80;7.45;;;;;;;;;;5043992;28;20722;-45
2023/01/29 18:26:51;;;;;;;11.18;7.35;;;;;;;;;;5043735;28;20029;-45
2023/01/29 18:29:18;;;;;;;12.80;7.55;;;;;;;;;;5044695;28;20111;-47
2023/01/29 18:31:47;;;;;;;11.40;7.15;;;;;;;;;;5045466;28;20037;-46
2023/01/29 18:34:13;;;;;;;11.57;6.68;;;;;;;;;;5045166;28;20021;-45
2023/01/29 18:36:39;;;;;;;8.75;6.03;;;;;;;;;;5044971;28;20790;-44
2023/01/29 18:39:05;;;;;;;9.15;6.22;;;;;;;;;;5044903;28;20128;-45
2023/01/29 18:41:31;;;;;;;8.98;6.00;;;;;;;;;;5044894;28;20123;-45
2023/01/29 18:43:57;;;;;;;8.68;5.55;;;;;;;;;;5043959;28;20021;-44
2023/01/29 18:46:23;;;;;;;8.98;5.85;;;;;;;;;;5045178;28;20036;-45
2023/01/29 18:48:49;;;;;;;12.43;6.95;;;;;;;;;;5044575;28;20143;-46
2023/01/29 18:51:16;;;;;;;11.27;6.80;;;;;;;;;;5022842;28;20066;-46
2023/01/29 18:53:42;;;;;;;13.38;6.32;;;;;;;;;;5043759;28;20404;-45
2023/01/29 19:02:28;;;;;;;13.07;7.75;;;;;;;;;;5042879;28;20551;-47
2023/01/29 19:04:55;;;;;;;12.60;6.82;;;;;;;;;;5043960;28;20150;-46
2023/01/29 19:07:21;;;;;;;11.25;6.20;;;;;;;;;;5042064;28;20037;-47
2023/01/29 19:09:47;;;;;;;10.68;6.30;;;;;;;;;;5038547;28;20040;-46
2023/01/29 19:12:13;;;;;;;9.90;5.30;;;;;;;;;;5044581;28;20021;-46
2023/01/29 19:14:39;;;;;;;8.20;5.32;;;;;;;;;;5044309;28;20055;-47
2023/01/29 19:17:05;;;;;;;9.95;5.72;;;;;;;;;;5045578;28;20102;-45
2023/01/29 19:19:31;;;;;;;9.48;5.88;;;;;;;;;;5048768;28;20478;-45
2023/01/29 19:21:57;;;;;;;9.35;5.80;;;;;;;;;;5048251;28;20074;-46
2023/01/29 19:24:23;;;;;;;7.97;5.07;;;;;;;;;;5048331;28;20336;-47
2023/01/29 19:26:49;;;;;;;9.23;6.00;;;;;;;;;;5047755;28;20411;-48
2023/01/29 19:29:16;;;;;;;8.80;5.13;;;;;;;;;;5045584;28;20075;-46
2023/01/29 19:31:43;;;;;;;8.00;5.18;;;;;;;;;;5046669;28;20029;-45
2023/01/29 19:34:09;;;;;;;8.55;5.45;;;;;;;;;;5041756;28;20036;-46
2023/01/29 19:36:36;;;;;;;11.55;6.57;;;;;;;;;;5046201;28;20037;-47
2023/01/29 19:39:02;;;;;;;11.15;6.78;;;;;;;;;;5046913;28;20043;-44
2023/01/29 19:41:28;;;;;;;10.50;6.45;;;;;;;;;;5047577;28;20025;-46
2023/01/29 19:43:55;;;;;;;8.48;5.90;;;;;;;;;;5047014;28;20087;-47
2023/01/29 19:46:21;;;;;;;9.93;6.07;;;;;;;;;;5047794;28;20105;-46
2023/01/29 19:48:47;;;;;;;9.50;5.63;;;;;;;;;;5047726;28;20021;-47
2023/01/29 19:51:13;;;;;;;9.13;6.00;;;;;;;;;;5047826;28;20032;-47
2023/01/29 19:53:43;;;;;;;10.52;5.88;;;;;;;;;;5048267;28;20025;-48
2023/01/29 19:56:11;;;;;;;8.48;5.68;;;;;;;;;;5048518;28;20092;-46
2023/01/29 19:58:37;;;;;;;8.23;5.38;;;;;;;;;;5046781;28;20090;-46
2023/01/29 20:01:04;;;;;;;10.35;5.50;;;;;;;;;;5047029;28;20099;-45
2023/01/29 20:03:30;;;;;;;8.82;5.72;;;;;;;;;;5047052;28;20044;-47
2023/01/29 20:06:01;;;;;;;9.38;6.07;;;;;;;;;;5046253;28;20079;-46
2023/01/29 20:08:27;;;;;;;11.20;6.45;;;;;;;;;;5045816;28;20028;-46
2023/01/29 20:10:53;;;;;;;9.90;5.97;;;;;;;;;;5048547;28;20585;-48